createdAt,value
2023-06-18T00:00:36.096Z,67.89
2023-06-18T00:06:01.660Z,68.26
2023-06-18T00:11:04.585Z,64.62
2023-06-18T00:16:07.444Z,62.60
2023-06-18T00:21:12.172Z,61.35
2023-06-18T00:26:15.147Z,60.28
2023-06-18T00:31:19.326Z,57.88
2023-06-18T00:36:22.187Z,56.71
2023-06-18T00:41:28.886Z,59.68
2023-06-18T00:46:32.132Z,70.13
2023-06-18T00:51:36.239Z,68.51
2023-06-18T00:56:39.527Z,65.20
2023-06-18T01:01:42.480Z,63.31
2023-06-18T01:06:46.875Z,62.32
2023-06-18T01:11:54.902Z,61.27
2023-06-18T01:17:00.223Z,58.64
2023-06-18T01:22:13.035Z,65.57
2023-06-18T01:27:17.741Z,66.29
2023-06-18T01:32:21.428Z,63.51
2023-06-18T01:37:49.708Z,62.00
2023-06-18T01:43:12.810Z,60.76
2023-06-18T01:48:19.131Z,60.22
2023-06-18T01:53:25.566Z,59.97
2023-06-18T01:58:32.925Z,58.69
2023-06-18T02:03:36.089Z,61.49
2023-06-18T02:08:39.045Z,67.56
2023-06-18T02:13:41.970Z,64.62
2023-06-18T02:18:44.763Z,62.36
2023-06-18T02:23:47.596Z,61.67
2023-06-18T02:28:50.518Z,60.90
2023-06-18T02:33:53.329Z,60.29
2023-06-18T02:38:56.685Z,59.18
2023-06-18T02:43:59.656Z,59.47
2023-06-18T02:49:03.099Z,63.58
2023-06-18T02:54:05.882Z,68.13
2023-06-18T02:59:08.872Z,65.26
2023-06-18T03:04:12.940Z,63.17
2023-06-18T03:09:16.081Z,61.27
2023-06-18T03:14:21.611Z,58.02
2023-06-18T03:19:24.645Z,60.12
2023-06-18T03:24:28.312Z,68.02
2023-06-18T03:29:31.517Z,66.44
2023-06-18T03:34:34.969Z,63.87
2023-06-18T03:39:37.737Z,61.47
2023-06-18T03:44:40.705Z,60.78
2023-06-18T03:49:43.607Z,57.74
2023-06-18T03:54:47.099Z,59.95
2023-06-18T03:59:53.030Z,66.10
2023-06-18T04:04:56.387Z,64.19
2023-06-18T04:09:59.161Z,61.19
2023-06-18T04:15:02.347Z,58.49
2023-06-18T04:20:06.378Z,58.90
2023-06-18T04:25:10.138Z,60.53
2023-06-18T04:30:13.037Z,66.20
2023-06-18T04:35:15.971Z,63.28
2023-06-18T04:40:19.693Z,59.83
2023-06-18T04:45:22.671Z,56.61
2023-06-18T04:50:25.832Z,59.25
2023-06-18T04:55:29.683Z,64.02
2023-06-18T05:00:34.509Z,61.03
2023-06-18T05:05:37.294Z,55.30
2023-06-18T05:10:40.133Z,57.77
2023-06-18T05:15:43.093Z,62.32
2023-06-18T05:20:46.398Z,61.94
2023-06-18T05:25:49.261Z,55.56
2023-06-18T05:30:52.222Z,56.49
2023-06-18T05:35:55.197Z,61.11
2023-06-18T05:40:58.022Z,62.67
2023-06-18T05:46:01.068Z,56.85
2023-06-18T05:51:04.251Z,58.31
2023-06-18T05:56:07.122Z,59.39
2023-06-18T06:01:10.532Z,61.20
2023-06-18T06:06:13.550Z,60.37
2023-06-18T06:11:16.372Z,56.97
2023-06-18T06:16:19.238Z,58.80
2023-06-18T06:21:22.081Z,59.41
2023-06-18T06:26:25.060Z,59.43
2023-06-18T06:31:27.894Z,58.82
2023-06-18T06:36:30.772Z,56.79
2023-06-18T06:41:33.634Z,56.90
2023-06-18T06:46:36.427Z,57.67
2023-06-18T06:51:39.610Z,55.14
2023-06-18T06:56:42.410Z,57.39
2023-06-18T07:01:46.164Z,55.40
2023-06-18T07:06:49.374Z,52.80
2023-06-18T07:11:52.356Z,49.93
2023-06-18T07:16:55.293Z,49.66
2023-06-18T07:21:58.202Z,49.90
2023-06-18T07:27:01.172Z,49.64
2023-06-18T07:32:04.177Z,48.64
2023-06-18T07:37:07.184Z,47.49
2023-06-18T07:42:10.067Z,45.64
2023-06-18T07:47:13.062Z,45.53
2023-06-18T07:52:15.850Z,44.90
2023-06-18T07:57:18.913Z,44.29
2023-06-18T08:02:21.814Z,45.05
2023-06-18T08:07:24.636Z,45.81
2023-06-18T08:12:27.422Z,46.52
2023-06-18T08:17:30.262Z,45.66
2023-06-18T08:22:33.538Z,43.72
2023-06-18T08:27:36.600Z,43.25
2023-06-18T08:32:39.982Z,42.38
2023-06-18T08:37:43.776Z,41.34
2023-06-18T08:42:58.532Z,40.98
2023-06-18T08:48:19.991Z,40.82
2023-06-18T08:53:39.532Z,39.85
2023-06-18T08:58:51.824Z,39.08
2023-06-18T09:03:56.420Z,38.46
2023-06-18T09:09:02.128Z,39.10
2023-06-18T09:14:05.190Z,40.32
2023-06-18T09:19:09.426Z,40.30
2023-06-18T09:24:21.860Z,40.56
2023-06-18T09:29:29.810Z,40.48
2023-06-18T09:34:32.916Z,39.86
2023-06-18T09:39:41.636Z,40.48
2023-06-18T09:44:46.534Z,38.24
2023-06-18T09:49:49.739Z,36.24
2023-06-18T09:54:52.752Z,36.02
2023-06-18T10:00:12.716Z,35.95
2023-06-18T10:05:16.412Z,36.56
2023-06-18T10:10:19.848Z,36.94
2023-06-18T10:15:27.230Z,37.50
2023-06-18T10:20:30.539Z,38.55
2023-06-18T10:25:34.647Z,39.48
2023-06-18T10:30:38.032Z,40.34
2023-06-18T10:35:41.692Z,40.34
2023-06-18T10:40:44.721Z,40.95
2023-06-18T10:46:17.936Z,40.94
2023-06-18T10:51:20.924Z,40.96
2023-06-18T10:56:23.673Z,40.84
2023-06-18T11:01:27.642Z,41.03
2023-06-18T11:06:31.620Z,41.89
2023-06-18T11:11:34.885Z,42.80
2023-06-18T11:16:38.453Z,43.49
2023-06-18T11:21:46.925Z,44.59
2023-06-18T11:26:50.887Z,44.65
2023-06-18T11:31:53.670Z,45.51
2023-06-18T11:36:56.517Z,45.79
2023-06-18T11:42:21.022Z,46.66
2023-06-18T11:47:24.014Z,47.40
2023-06-18T11:52:28.617Z,47.80
2023-06-18T11:57:32.066Z,48.07
2023-06-18T12:02:35.083Z,48.29
2023-06-18T12:07:45.958Z,48.01
2023-06-18T12:12:57.186Z,47.86
2023-06-18T12:18:20.292Z,47.53
2023-06-18T12:23:23.950Z,47.46
2023-06-18T12:28:26.873Z,47.66
2023-06-18T12:33:29.776Z,51.67
2023-06-18T12:38:47.005Z,52.99
2023-06-18T12:43:50.425Z,54.61
2023-06-18T12:48:53.923Z,55.75
2023-06-18T12:53:56.849Z,56.75
2023-06-18T12:59:02.913Z,57.61
2023-06-18T13:04:05.935Z,59.28
2023-06-18T13:09:09.415Z,60.43
2023-06-18T13:14:25.954Z,61.21
2023-06-18T13:19:40.487Z,60.07
2023-06-18T13:24:46.553Z,57.51
2023-06-18T13:29:49.483Z,60.24
2023-06-18T13:34:52.901Z,62.17
2023-06-18T13:39:55.980Z,59.74
2023-06-18T13:45:00.639Z,58.88
2023-06-18T13:50:04.838Z,61.48
2023-06-18T13:55:08.723Z,60.37
2023-06-18T14:00:12.754Z,58.26
2023-06-18T14:05:15.999Z,60.56
2023-06-18T14:10:19.162Z,62.07
2023-06-18T14:15:22.156Z,60.89
2023-06-18T14:20:25.564Z,58.29
2023-06-18T14:25:29.044Z,60.14
2023-06-18T14:30:32.605Z,62.15
2023-06-18T14:35:35.388Z,59.93
2023-06-18T14:40:38.392Z,58.84
2023-06-18T14:45:41.287Z,60.09
2023-06-18T14:50:45.541Z,60.02
2023-06-18T14:55:48.436Z,59.72
2023-06-18T15:00:51.391Z,59.75
2023-06-18T15:05:54.556Z,59.37
2023-06-18T15:10:57.385Z,58.83
2023-06-18T15:16:00.260Z,58.28
2023-06-18T15:21:03.063Z,57.66
2023-06-18T15:26:06.227Z,56.71
2023-06-18T15:31:12.419Z,56.16
2023-06-18T15:36:15.894Z,55.86
2023-06-18T15:41:18.779Z,55.13
2023-06-18T15:46:21.679Z,54.16
2023-06-18T15:51:24.689Z,53.97
2023-06-18T15:56:27.515Z,54.09
2023-06-18T16:01:31.920Z,54.44
2023-06-18T16:06:34.681Z,55.12
2023-06-18T16:11:37.597Z,55.76
2023-06-18T16:16:40.542Z,55.96
2023-06-18T16:21:43.579Z,56.47
2023-06-18T16:26:46.475Z,56.63
2023-06-18T16:31:49.382Z,56.55
2023-06-18T16:36:53.086Z,56.27
2023-06-18T16:41:56.119Z,56.13
2023-06-18T16:46:58.949Z,55.85
2023-06-18T16:52:01.961Z,55.76
2023-06-18T16:57:05.419Z,55.85
2023-06-18T17:02:08.236Z,56.00
2023-06-18T17:07:11.226Z,56.07
2023-06-18T17:12:14.541Z,56.16
2023-06-18T17:17:17.456Z,56.83
2023-06-18T17:22:20.453Z,57.21
2023-06-18T17:27:24.081Z,57.36
2023-06-18T17:32:27.001Z,57.90
2023-06-18T17:37:29.994Z,58.11
2023-06-18T17:42:32.754Z,58.88
2023-06-18T17:47:36.051Z,59.35
2023-06-18T17:52:38.908Z,60.45
2023-06-18T17:57:42.239Z,60.69
2023-06-18T18:02:45.111Z,65.04
2023-06-18T18:07:48.779Z,64.04
2023-06-18T18:12:51.559Z,57.44
2023-06-18T18:17:54.379Z,57.06
2023-06-18T18:22:57.181Z,59.66
2023-06-18T18:27:59.969Z,61.60
2023-06-18T18:33:02.865Z,63.60
2023-06-18T18:38:05.860Z,62.68
2023-06-18T18:43:08.768Z,58.35
2023-06-18T18:48:12.421Z,60.51
2023-06-18T18:53:15.330Z,63.56
2023-06-18T18:58:18.551Z,60.67
2023-06-18T19:03:21.661Z,60.06
2023-06-18T19:08:25.157Z,63.74
2023-06-18T19:13:28.032Z,62.00
2023-06-18T19:18:33.281Z,58.20
2023-06-18T19:23:36.662Z,59.97
2023-06-18T19:28:39.509Z,63.56
2023-06-18T19:33:42.739Z,65.02
2023-06-18T19:38:46.012Z,63.22
2023-06-18T19:43:48.967Z,61.60
2023-06-18T19:48:52.693Z,60.48
2023-06-18T19:53:55.674Z,57.85
2023-06-18T19:58:58.972Z,57.44
2023-06-18T20:04:02.138Z,57.76
2023-06-18T20:09:05.345Z,60.13
2023-06-18T20:14:08.244Z,68.40
2023-06-18T20:19:11.221Z,67.76
2023-06-18T20:24:14.163Z,64.22
2023-06-18T20:29:17.287Z,62.53
2023-06-18T20:34:20.140Z,61.16
2023-06-18T20:39:23.605Z,60.30
2023-06-18T20:44:26.617Z,59.46
2023-06-18T20:49:30.498Z,57.87
2023-06-18T20:54:34.372Z,60.44
2023-06-18T20:59:37.961Z,61.71
2023-06-18T21:04:40.755Z,68.89
2023-06-18T21:09:43.881Z,67.64
2023-06-18T21:14:46.716Z,64.51
2023-06-18T21:19:49.472Z,62.99
2023-06-18T21:24:52.285Z,62.56
2023-06-18T21:29:55.107Z,61.82
2023-06-18T21:34:57.908Z,60.77
2023-06-18T21:40:01.573Z,59.97
2023-06-18T21:45:05.102Z,59.42
2023-06-18T21:50:09.747Z,58.30
2023-06-18T21:55:14.004Z,60.06
2023-06-18T22:00:19.719Z,67.79
2023-06-18T22:05:22.962Z,67.13
2023-06-18T22:10:26.109Z,64.13
2023-06-18T22:15:29.201Z,62.75
2023-06-18T22:20:32.190Z,61.89
2023-06-18T22:25:35.106Z,61.44
2023-06-18T22:30:38.217Z,61.22
2023-06-18T22:35:41.064Z,60.98
2023-06-18T22:40:43.881Z,60.79
2023-06-18T22:45:46.780Z,61.21
2023-06-18T22:50:49.914Z,60.99
2023-06-18T22:55:52.713Z,61.20
2023-06-18T23:00:56.431Z,61.11
2023-06-18T23:05:59.360Z,60.50
2023-06-18T23:11:03.190Z,60.25
2023-06-18T23:16:06.112Z,59.92
2023-06-18T23:21:09.766Z,59.59
2023-06-18T23:26:12.633Z,56.33
2023-06-18T23:31:17.221Z,58.05
2023-06-18T23:36:20.265Z,65.65
2023-06-18T23:41:23.169Z,66.07
2023-06-18T23:46:25.989Z,63.98
2023-06-18T23:51:28.929Z,64.50
2023-06-18T23:56:31.676Z,62.86
